createdAt,value
2023-04-22T00:03:04.704Z,10.60
2023-04-22T00:08:10.079Z,7.60
2023-04-22T00:13:13.568Z,7.70
2023-04-22T00:18:17.359Z,9.70
2023-04-22T00:23:21.056Z,6.00
2023-04-22T00:28:24.537Z,8.50
2023-04-22T00:33:28.141Z,12.30
2023-04-22T00:38:31.738Z,6.90
2023-04-22T00:43:35.309Z,5.30
2023-04-22T00:48:39.184Z,8.60
2023-04-22T00:53:42.980Z,7.20
2023-04-22T00:58:46.669Z,7.40
2023-04-22T01:03:52.359Z,12.00
2023-04-22T01:08:57.016Z,9.50
2023-04-22T01:14:00.797Z,6.90
2023-04-22T01:19:05.818Z,5.80
2023-04-22T01:24:09.857Z,6.50
2023-04-22T01:29:15.050Z,5.30
2023-04-22T01:34:18.767Z,5.30
2023-04-22T01:39:22.450Z,6.90
2023-04-22T01:44:26.623Z,8.10
2023-04-22T01:49:30.208Z,8.60
2023-04-22T01:54:34.757Z,8.10
2023-04-22T01:59:38.591Z,11.20
2023-04-22T02:04:42.689Z,9.80
2023-04-22T02:09:47.012Z,7.70
2023-04-22T02:14:51.817Z,8.50
2023-04-22T02:19:55.817Z,8.70
2023-04-22T02:25:00.781Z,10.60
2023-04-22T02:30:05.914Z,11.00
2023-04-22T02:35:11.134Z,11.00
2023-04-22T02:40:14.698Z,11.10
2023-04-22T02:45:18.602Z,10.00
2023-04-22T02:50:22.416Z,9.90
2023-04-22T02:55:26.145Z,10.90
2023-04-22T03:00:29.880Z,9.70
2023-04-22T03:05:33.569Z,8.30
2023-04-22T03:10:37.915Z,8.90
2023-04-22T03:15:42.186Z,12.80
2023-04-22T03:20:46.082Z,8.60
2023-04-22T03:25:50.504Z,14.70
2023-04-22T03:30:55.054Z,10.60
2023-04-22T03:35:59.299Z,12.20
2023-04-22T03:41:04.324Z,16.20
2023-04-22T03:46:16.001Z,12.80
2023-04-22T03:51:31.161Z,14.00
2023-04-22T03:56:36.294Z,12.10
2023-04-22T04:01:39.885Z,14.10
2023-04-22T04:06:45.482Z,7.90
2023-04-22T04:11:49.134Z,9.60
2023-04-22T04:16:52.848Z,10.90
2023-04-22T04:22:02.146Z,11.00
2023-04-22T04:27:09.340Z,12.50
2023-04-22T04:32:18.830Z,12.30
2023-04-22T04:37:22.609Z,13.10
2023-04-22T04:42:36.901Z,13.70
2023-04-22T04:47:42.421Z,10.20
2023-04-22T04:52:56.355Z,13.00
2023-04-22T04:58:04.446Z,9.10
2023-04-22T05:03:08.334Z,11.40
2023-04-22T05:08:12.092Z,12.70
2023-04-22T05:13:16.488Z,10.30
2023-04-22T05:18:22.248Z,14.30
2023-04-22T05:23:26.873Z,12.40
2023-04-22T05:28:32.006Z,9.30
2023-04-22T05:33:35.909Z,9.30
2023-04-22T05:38:39.568Z,10.80
2023-04-22T05:43:43.266Z,12.80
2023-04-22T05:48:51.515Z,12.90
2023-04-22T05:54:24.739Z,15.50
2023-04-22T05:59:28.805Z,14.30
2023-04-22T06:04:36.415Z,10.00
2023-04-22T06:09:42.181Z,9.70
2023-04-22T06:14:46.103Z,20.20
2023-04-22T06:19:49.725Z,19.40
2023-04-22T06:24:54.084Z,11.00
2023-04-22T06:29:57.716Z,17.80
2023-04-22T06:35:01.451Z,13.40
2023-04-22T06:40:08.788Z,8.80
2023-04-22T06:45:33.296Z,12.00
2023-04-22T06:51:01.500Z,15.40
2023-04-22T06:56:07.199Z,8.00
2023-04-22T07:01:10.959Z,19.10
2023-04-22T07:06:15.181Z,14.70
2023-04-22T07:11:19.027Z,22.30
2023-04-22T07:16:38.501Z,13.10
2023-04-22T07:21:42.230Z,11.70
2023-04-22T07:26:46.236Z,10.70
2023-04-22T07:31:57.537Z,5.60
2023-04-22T07:37:01.507Z,9.70
2023-04-22T07:42:06.794Z,10.40
2023-04-22T07:47:10.430Z,9.20
2023-04-22T07:52:14.122Z,8.00
2023-04-22T07:57:21.203Z,10.30
2023-04-22T08:02:25.188Z,10.70
2023-04-22T08:07:33.194Z,5.50
2023-04-22T08:12:37.512Z,12.90
2023-04-22T08:17:41.117Z,7.60
2023-04-22T08:22:44.982Z,7.40
2023-04-22T08:27:50.739Z,5.00
2023-04-22T08:32:54.576Z,11.20
2023-04-22T08:37:58.364Z,14.70
2023-04-22T08:43:02.013Z,6.50
2023-04-22T08:48:07.342Z,18.60
2023-04-22T08:53:10.912Z,8.50
2023-04-22T08:58:14.493Z,8.90
2023-04-22T09:03:19.323Z,6.10
2023-04-22T09:08:23.395Z,13.90
2023-04-22T09:13:27.902Z,2.50
2023-04-22T09:18:38.536Z,22.20
2023-04-22T09:23:50.538Z,11.60
2023-04-22T09:28:57.750Z,15.30
2023-04-22T09:34:01.989Z,12.50
2023-04-22T09:39:07.580Z,4.10
2023-04-22T09:44:15.585Z,9.20
2023-04-22T09:49:20.770Z,6.80
2023-04-22T09:54:24.406Z,15.70
2023-04-22T09:59:29.352Z,5.60
2023-04-22T10:04:33.646Z,7.50
2023-04-22T10:09:38.426Z,9.40
2023-04-22T10:14:42.426Z,5.50
2023-04-22T10:19:47.872Z,9.20
2023-04-22T10:24:54.855Z,8.70
2023-04-22T10:29:58.441Z,9.00
2023-04-22T10:35:14.301Z,10.50
2023-04-22T10:40:19.438Z,12.50
2023-04-22T10:45:26.047Z,9.80
2023-04-22T10:50:32.777Z,20.40
2023-04-22T10:55:51.401Z,15.60
2023-04-22T11:00:59.400Z,13.20
2023-04-22T11:06:16.763Z,7.50
2023-04-22T11:11:20.492Z,8.80
2023-04-22T11:16:24.886Z,4.10
2023-04-22T11:21:28.675Z,12.40
2023-04-22T11:26:37.033Z,10.20
2023-04-22T11:31:47.045Z,7.00
2023-04-22T11:36:52.016Z,4.40
2023-04-22T11:41:56.082Z,7.00
2023-04-22T11:47:00.937Z,10.60
2023-04-22T11:52:04.905Z,6.30
2023-04-22T11:57:11.170Z,6.70
2023-04-22T12:02:17.297Z,10.00
2023-04-22T12:07:21.201Z,22.80
2023-04-22T12:12:26.436Z,3.50
2023-04-22T12:17:32.446Z,9.60
2023-04-22T12:22:38.392Z,7.50
2023-04-22T12:27:43.106Z,12.40
2023-04-22T12:32:46.685Z,10.50
2023-04-22T12:37:52.490Z,16.60
2023-04-22T12:42:56.260Z,7.20
2023-04-22T12:48:00.409Z,18.70
2023-04-22T12:53:04.117Z,7.30
2023-04-22T12:58:07.984Z,5.70
2023-04-22T13:03:11.742Z,9.10
2023-04-22T13:08:15.592Z,14.90
2023-04-22T13:13:19.639Z,9.80
2023-04-22T13:18:23.785Z,7.40
2023-04-22T13:23:27.677Z,3.70
2023-04-22T13:28:31.320Z,5.70
2023-04-22T13:33:34.946Z,7.40
2023-04-22T13:38:38.703Z,12.00
2023-04-22T13:43:42.376Z,9.20
2023-04-22T13:48:45.953Z,9.10
2023-04-22T13:53:49.654Z,6.30
2023-04-22T13:58:54.003Z,7.50
2023-04-22T14:03:57.775Z,4.70
2023-04-22T14:09:03.803Z,8.40
2023-04-22T14:14:07.491Z,8.50
2023-04-22T14:19:11.618Z,4.10
2023-04-22T14:24:15.357Z,11.00
2023-04-22T14:29:19.503Z,5.20
2023-04-22T14:34:23.209Z,16.60
2023-04-22T14:39:26.787Z,9.80
2023-04-22T14:44:30.950Z,9.10
2023-04-22T14:49:34.494Z,13.30
2023-04-22T14:54:38.068Z,14.30
2023-04-22T14:59:41.895Z,25.20
2023-04-22T15:04:45.764Z,9.30
2023-04-22T15:09:49.374Z,12.10
2023-04-22T15:14:53.276Z,20.70
2023-04-22T15:19:57.349Z,13.10
2023-04-22T15:25:01.186Z,11.60
2023-04-22T15:30:07.031Z,13.40
2023-04-22T15:35:11.406Z,22.20
2023-04-22T15:40:15.268Z,10.50
2023-04-22T15:45:19.116Z,31.20
2023-04-22T15:50:24.455Z,14.80
2023-04-22T15:55:28.087Z,14.20
2023-04-22T16:00:31.757Z,18.40
2023-04-22T16:05:35.874Z,10.60
2023-04-22T16:10:39.693Z,14.70
2023-04-22T16:15:43.586Z,22.70
2023-04-22T16:20:47.295Z,13.30
2023-04-22T16:25:50.871Z,13.20
2023-04-22T16:30:54.712Z,18.20
2023-04-22T16:35:58.508Z,12.10
2023-04-22T16:41:03.319Z,12.60
2023-04-22T16:46:06.957Z,19.20
2023-04-22T16:51:10.908Z,16.50
2023-04-22T16:56:14.604Z,14.90
2023-04-22T17:01:18.292Z,12.60
2023-04-22T17:06:22.052Z,17.70
2023-04-22T17:11:25.822Z,15.30
2023-04-22T17:16:29.604Z,14.30
2023-04-22T17:21:35.489Z,16.20
2023-04-22T17:26:39.890Z,22.40
2023-04-22T17:31:43.594Z,19.80
2023-04-22T17:36:47.564Z,20.50
2023-04-22T17:41:51.223Z,17.70
2023-04-22T17:46:54.947Z,23.00
2023-04-22T17:51:59.209Z,17.90
2023-04-22T17:57:03.540Z,17.40
2023-04-22T18:02:08.452Z,33.00
2023-04-22T18:07:12.066Z,37.10
2023-04-22T18:12:16.031Z,27.10
2023-04-22T18:17:19.906Z,39.70
2023-04-22T18:22:24.079Z,31.30
2023-04-22T18:27:27.584Z,26.10
2023-04-22T18:32:31.386Z,28.40
2023-04-22T18:37:35.155Z,31.80
2023-04-22T18:42:39.331Z,25.40
2023-04-22T18:47:44.786Z,71.70
2023-04-22T18:52:48.520Z,96.00
2023-04-22T18:57:52.164Z,51.00
2023-04-22T19:02:56.019Z,35.70
2023-04-22T19:07:59.674Z,19.00
2023-04-22T19:13:04.393Z,22.60
2023-04-22T19:18:08.350Z,42.80
2023-04-22T19:23:12.322Z,50.20
2023-04-22T19:28:16.456Z,45.30
2023-04-22T19:33:21.038Z,43.60
2023-04-22T19:38:25.206Z,50.60
2023-04-22T19:43:29.291Z,42.20
2023-04-22T19:48:36.892Z,27.60
2023-04-22T19:53:41.724Z,48.00
2023-04-22T19:58:46.014Z,29.20
2023-04-22T20:03:51.786Z,34.70
2023-04-22T20:08:58.626Z,66.70
2023-04-22T20:14:06.928Z,34.60
2023-04-22T20:24:19.214Z,34.50
2023-04-22T20:29:23.867Z,44.60
2023-04-22T20:34:30.903Z,62.20
2023-04-22T20:39:37.973Z,32.70
2023-04-22T20:44:42.525Z,35.40
2023-04-22T20:49:46.806Z,22.60
2023-04-22T20:54:54.539Z,49.30
2023-04-22T21:00:03.249Z,19.70
2023-04-22T21:05:09.776Z,24.40
2023-04-22T21:10:15.650Z,36.10
2023-04-22T21:15:21.330Z,27.50
2023-04-22T21:20:27.707Z,35.60
2023-04-22T21:25:32.629Z,26.40
2023-04-22T21:30:39.199Z,20.20
2023-04-22T21:35:43.682Z,20.40
2023-04-22T21:40:48.184Z,16.90
2023-04-22T21:45:52.306Z,25.50
2023-04-22T21:50:57.348Z,24.90
2023-04-22T21:56:01.691Z,24.30
2023-04-22T22:01:05.868Z,22.80
2023-04-22T22:06:09.947Z,26.70
2023-04-22T22:11:27.476Z,31.00
2023-04-22T22:16:35.436Z,18.30
2023-04-22T22:21:40.101Z,21.40
2023-04-22T22:26:44.365Z,22.70
2023-04-22T22:31:48.400Z,26.20
2023-04-22T22:36:52.596Z,18.20
2023-04-22T22:41:57.789Z,26.30
2023-04-22T22:47:03.584Z,23.60
2023-04-22T22:52:07.898Z,23.60
2023-04-22T22:57:11.874Z,19.40
2023-04-22T23:02:15.713Z,25.40
2023-04-22T23:07:19.720Z,28.40
2023-04-22T23:12:23.567Z,30.10
2023-04-22T23:17:27.500Z,22.90
2023-04-22T23:22:32.318Z,27.80
2023-04-22T23:27:36.716Z,30.40
2023-04-22T23:32:42.588Z,28.00
2023-04-22T23:37:47.718Z,29.90
2023-04-22T23:42:51.364Z,24.80
2023-04-22T23:47:55.138Z,27.30
2023-04-22T23:52:58.766Z,42.90
2023-04-22T23:58:03.422Z,26.60
